WZZ9980 LGAV-LHBP
Flight info
| Callsign | WZZ9980 |
|---|---|
| Flight time | N/A |
| Altitude | 36000 |
| Route | KRO T162 NEVRA UT162 KOROS UN133 GIKAS DCT ATFIR DCT LOMOS DCT PADGU DCT DEGET DCT KEZAL |
| Aircraft | A320/M-SDE1E2E3FGIJ1J4RWXY/LB1 |
Departure
| Time | 2026-05-07 18:54 |
|---|---|
| Airport | Athens Eleftherios Venizelos International Airport (LGAV) |
Arrival
| Time | N/A |
|---|---|
| Airport | Budapest Liszt Ferenc International Airport (LHBP) |
| Time | Latitude | Longitude | Altitude | Speed | Heading |
|---|---|---|---|---|---|
| 2026-05-07 18:28 | 37.93114 | 23.94415 | 301 ft | 0 kts | 217° |
| 2026-05-07 18:42 | 37.93115 | 23.94416 | 301 ft | 2 kts | 217° |
| 2026-05-07 18:43 | 37.93135 | 23.94433 | 302 ft | 4 kts | 208° |
| 2026-05-07 18:43 | 37.93159 | 23.94447 | 301 ft | 4 kts | 192° |
| 2026-05-07 18:43 | 37.93184 | 23.94448 | 301 ft | 4 kts | 147° |
| 2026-05-07 18:43 | 37.93193 | 23.94438 | 302 ft | 1 kts | 127° |
| 2026-05-07 18:44 | 37.93194 | 23.94437 | 302 ft | 0 kts | 127° |
| 2026-05-07 18:46 | 37.93188 | 23.94447 | 301 ft | 3 kts | 127° |
| 2026-05-07 18:46 | 37.93178 | 23.94462 | 304 ft | 5 kts | 127° |
| 2026-05-07 18:47 | 37.93154 | 23.94503 | 301 ft | 7 kts | 127° |
| 2026-05-07 18:47 | 37.93123 | 23.94553 | 301 ft | 5 kts | 128° |
| 2026-05-07 18:47 | 37.93097 | 23.94598 | 302 ft | 7 kts | 126° |
| 2026-05-07 18:47 | 37.93065 | 23.94660 | 301 ft | 10 kts | 116° |
| 2026-05-07 18:48 | 37.93086 | 23.94744 | 300 ft | 12 kts | 45° |
| 2026-05-07 18:48 | 37.93155 | 23.94812 | 300 ft | 13 kts | 36° |
| 2026-05-07 18:48 | 37.93228 | 23.94879 | 301 ft | 13 kts | 36° |
| 2026-05-07 18:48 | 37.93307 | 23.94953 | 299 ft | 15 kts | 37° |
| 2026-05-07 18:49 | 37.93382 | 23.95023 | 299 ft | 13 kts | 36° |
| 2026-05-07 18:49 | 37.93460 | 23.95098 | 300 ft | 15 kts | 37° |
| 2026-05-07 18:49 | 37.93543 | 23.95176 | 298 ft | 15 kts | 37° |
| 2026-05-07 18:49 | 37.93629 | 23.95257 | 299 ft | 16 kts | 37° |
| 2026-05-07 18:50 | 37.93724 | 23.95348 | 299 ft | 18 kts | 37° |
| 2026-05-07 18:50 | 37.93833 | 23.95449 | 298 ft | 21 kts | 37° |
| 2026-05-07 18:50 | 37.93936 | 23.95542 | 297 ft | 16 kts | 37° |
| 2026-05-07 18:50 | 37.94030 | 23.95634 | 298 ft | 18 kts | 36° |
| 2026-05-07 18:51 | 37.94134 | 23.95737 | 300 ft | 19 kts | 38° |
| 2026-05-07 18:51 | 37.94238 | 23.95834 | 299 ft | 19 kts | 35° |
| 2026-05-07 18:51 | 37.94338 | 23.95930 | 298 ft | 16 kts | 37° |
| 2026-05-07 18:51 | 37.94434 | 23.96021 | 301 ft | 17 kts | 37° |
| 2026-05-07 18:52 | 37.94510 | 23.96095 | 298 ft | 14 kts | 37° |
| 2026-05-07 18:52 | 37.94593 | 23.96174 | 301 ft | 15 kts | 37° |
| 2026-05-07 18:52 | 37.94656 | 23.96266 | 299 ft | 12 kts | 93° |
| 2026-05-07 18:52 | 37.94605 | 23.96321 | 299 ft | 12 kts | 181° |
| 2026-05-07 18:53 | 37.94519 | 23.96302 | 294 ft | 13 kts | 186° |
| 2026-05-07 18:53 | 37.94448 | 23.96309 | 290 ft | 9 kts | 189° |
| 2026-05-07 18:53 | 37.94432 | 23.96299 | 293 ft | 0 kts | 213° |
| 2026-05-07 18:53 | 37.94311 | 23.96184 | 289 ft | 57 kts | 218° |
| 2026-05-07 18:54 | 37.93819 | 23.95716 | 279 ft | 117 kts | 217° |
| 2026-05-07 18:54 | 37.93046 | 23.94979 | 316 ft | 158 kts | 220° |
| 2026-05-07 18:54 | 37.92159 | 23.94143 | 884 ft | 156 kts | 218° |
| 2026-05-07 18:54 | 37.91250 | 23.93402 | 1547 ft | 156 kts | 208° |
| 2026-05-07 18:55 | 37.90249 | 23.92714 | 1931 ft | 174 kts | 207° |
| 2026-05-07 18:55 | 37.89113 | 23.91946 | 2200 ft | 196 kts | 207° |
| 2026-05-07 18:55 | 37.87858 | 23.91097 | 2660 ft | 209 kts | 207° |
| 2026-05-07 18:55 | 37.86583 | 23.90231 | 3214 ft | 212 kts | 207° |
| 2026-05-07 18:56 | 37.85266 | 23.89337 | 3861 ft | 218 kts | 207° |
| 2026-05-07 18:56 | 37.83851 | 23.88674 | 4596 ft | 220 kts | 187° |
| 2026-05-07 18:56 | 37.82327 | 23.88869 | 5269 ft | 225 kts | 160° |
| 2026-05-07 18:56 | 37.81017 | 23.89966 | 5930 ft | 232 kts | 133° |
| 2026-05-07 18:57 | 37.80188 | 23.91733 | 6637 ft | 237 kts | 116° |
| 2026-05-07 18:57 | 37.79483 | 23.93630 | 7294 ft | 240 kts | 116° |
| 2026-05-07 18:57 | 37.78763 | 23.95558 | 7976 ft | 244 kts | 116° |
| 2026-05-07 18:57 | 37.78032 | 23.97506 | 8726 ft | 247 kts | 117° |
| 2026-05-07 18:58 | 37.77297 | 23.99459 | 9467 ft | 251 kts | 117° |
| 2026-05-07 18:58 | 37.76540 | 24.01465 | 10184 ft | 255 kts | 117° |
| 2026-05-07 18:58 | 37.75821 | 24.03540 | 10855 ft | 260 kts | 113° |
| 2026-05-07 18:58 | 37.75081 | 24.05655 | 11368 ft | 271 kts | 128° |
| 2026-05-07 18:59 | 37.73734 | 24.07429 | 11609 ft | 291 kts | 139° |
| 2026-05-07 18:59 | 37.72200 | 24.09252 | 11837 ft | 315 kts | 139° |
| 2026-05-07 18:59 | 37.70564 | 24.11245 | 12075 ft | 339 kts | 137° |
| 2026-05-07 18:59 | 37.68842 | 24.13382 | 12609 ft | 352 kts | 137° |
| 2026-05-07 19:00 | 37.67093 | 24.15576 | 13302 ft | 357 kts | 137° |
| 2026-05-07 19:00 | 37.65353 | 24.17769 | 13969 ft | 361 kts | 137° |
| 2026-05-07 19:00 | 37.63674 | 24.20151 | 14545 ft | 367 kts | 125° |
| 2026-05-07 19:00 | 37.62590 | 24.23079 | 15096 ft | 373 kts | 105° |
| 2026-05-07 19:01 | 37.62300 | 24.26337 | 15640 ft | 378 kts | 86° |
| 2026-05-07 19:01 | 37.62872 | 24.29567 | 16190 ft | 381 kts | 66° |
| 2026-05-07 19:01 | 37.64266 | 24.32400 | 16737 ft | 382 kts | 45° |
| 2026-05-07 19:01 | 37.66324 | 24.34477 | 17290 ft | 380 kts | 25° |
| 2026-05-07 19:02 | 37.68791 | 24.35596 | 17854 ft | 378 kts | 11° |
| 2026-05-07 19:02 | 37.71294 | 24.36530 | 18433 ft | 382 kts | 14° |
| 2026-05-07 19:02 | 37.73808 | 24.37656 | 18949 ft | 386 kts | 17° |
| 2026-05-07 19:02 | 37.76331 | 24.38876 | 19491 ft | 389 kts | 18° |
| 2026-05-07 19:03 | 37.78865 | 24.40120 | 20041 ft | 392 kts | 17° |
| 2026-05-07 19:03 | 37.81421 | 24.41350 | 20574 ft | 394 kts | 17° |
| 2026-05-07 19:03 | 37.84000 | 24.42555 | 21092 ft | 396 kts | 16° |
| 2026-05-07 19:03 | 37.86600 | 24.43741 | 21593 ft | 399 kts | 16° |
| 2026-05-07 19:04 | 37.89228 | 24.44920 | 22067 ft | 402 kts | 15° |
| 2026-05-07 19:04 | 37.91873 | 24.46097 | 22539 ft | 405 kts | 15° |
| 2026-05-07 19:04 | 37.94502 | 24.47266 | 22997 ft | 408 kts | 15° |
| 2026-05-07 19:04 | 37.97190 | 24.48469 | 23472 ft | 411 kts | 15° |
| 2026-05-07 19:05 | 37.99898 | 24.49682 | 23902 ft | 414 kts | 15° |
| 2026-05-07 19:05 | 38.02635 | 24.50815 | 24328 ft | 415 kts | 13° |
| 2026-05-07 19:05 | 38.05400 | 24.51865 | 24750 ft | 416 kts | 11° |
| 2026-05-07 19:05 | 38.08190 | 24.52875 | 25181 ft | 417 kts | 11° |
| 2026-05-07 19:06 | 38.10978 | 24.53873 | 25589 ft | 418 kts | 11° |
| 2026-05-07 19:06 | 38.14967 | 24.55316 | 26191 ft | 421 kts | 11° |
| 2026-05-07 19:06 | 38.15916 | 24.55664 | 26327 ft | 421 kts | 11° |
| 2026-05-07 19:07 | 38.15996 | 24.55693 | 26341 ft | 421 kts | 11° |
| 2026-05-07 19:07 | 38.17624 | 24.56292 | 26563 ft | 423 kts | 11° |
| 2026-05-07 19:07 | 38.20206 | 24.57255 | 26941 ft | 424 kts | 11° |
| 2026-05-07 19:07 | 38.23037 | 24.58327 | 27344 ft | 426 kts | 11° |
| 2026-05-07 19:08 | 38.25882 | 24.59414 | 27741 ft | 427 kts | 11° |
| 2026-05-07 19:08 | 38.28695 | 24.60490 | 28127 ft | 429 kts | 11° |
| 2026-05-07 19:08 | 38.31555 | 24.61580 | 28524 ft | 430 kts | 11° |
| 2026-05-07 19:08 | 38.34433 | 24.62672 | 28926 ft | 432 kts | 11° |
| 2026-05-07 19:09 | 38.37317 | 24.63767 | 29328 ft | 434 kts | 10° |
| 2026-05-07 19:09 | 38.40214 | 24.64864 | 29718 ft | 435 kts | 10° |
| 2026-05-07 19:09 | 38.43123 | 24.65966 | 30109 ft | 437 kts | 10° |
| 2026-05-07 19:09 | 38.46042 | 24.67075 | 30444 ft | 438 kts | 10° |
| 2026-05-07 19:10 | 38.48964 | 24.68188 | 30804 ft | 439 kts | 9° |
| 2026-05-07 19:10 | 38.51878 | 24.69298 | 31324 ft | 435 kts | 8° |
| 2026-05-07 19:10 | 38.54764 | 24.70398 | 31873 ft | 430 kts | 8° |
| 2026-05-07 19:10 | 38.57577 | 24.71471 | 32430 ft | 425 kts | 7° |
| 2026-05-07 19:11 | 38.60397 | 24.72548 | 33013 ft | 421 kts | 6° |
| 2026-05-07 19:11 | 38.63187 | 24.73616 | 33617 ft | 416 kts | 5° |
| 2026-05-07 19:11 | 38.65942 | 24.74670 | 34202 ft | 411 kts | 5° |
| 2026-05-07 19:11 | 38.68666 | 24.75715 | 34715 ft | 406 kts | 5° |
| 2026-05-07 19:12 | 38.71359 | 24.76746 | 35158 ft | 403 kts | 4° |
| 2026-05-07 19:12 | 38.74041 | 24.77772 | 35570 ft | 401 kts | 4° |
| 2026-05-07 19:12 | 38.76703 | 24.78789 | 35944 ft | 399 kts | 4° |
| 2026-05-07 19:12 | 38.79330 | 24.79790 | 36096 ft | 399 kts | 4° |
| 2026-05-07 19:13 | 38.84644 | 24.81818 | 36123 ft | 398 kts | 4° |
| 2026-05-07 19:13 | 38.89954 | 24.83855 | 36126 ft | 398 kts | 4° |
| 2026-05-07 19:14 | 38.95263 | 24.85901 | 36125 ft | 398 kts | 4° |
| 2026-05-07 19:14 | 39.00535 | 24.87934 | 36123 ft | 398 kts | 4° |
| 2026-05-07 19:15 | 39.05831 | 24.89894 | 36131 ft | 389 kts | 359° |
| 2026-05-07 19:15 | 39.08473 | 24.90275 | 36134 ft | 375 kts | 349° |
| 2026-05-07 19:15 | 39.11026 | 24.90051 | 36135 ft | 363 kts | 341° |
| 2026-05-07 19:16 | 39.15684 | 24.88061 | 36133 ft | 348 kts | 328° |
| 2026-05-07 19:16 | 39.20052 | 24.85338 | 36131 ft | 349 kts | 328° |
| 2026-05-07 19:17 | 39.24407 | 24.82637 | 36132 ft | 350 kts | 328° |
| 2026-05-07 19:17 | 39.28802 | 24.79906 | 36134 ft | 351 kts | 328° |
| 2026-05-07 19:18 | 39.33204 | 24.77177 | 36135 ft | 351 kts | 328° |
| 2026-05-07 19:18 | 39.37601 | 24.74440 | 36137 ft | 351 kts | 327° |
| 2026-05-07 19:19 | 39.41970 | 24.71707 | 36136 ft | 351 kts | 327° |
| 2026-05-07 19:19 | 39.46367 | 24.68949 | 36136 ft | 351 kts | 327° |
| 2026-05-07 19:20 | 39.50814 | 24.66299 | 36136 ft | 356 kts | 333° |
| 2026-05-07 19:20 | 39.55500 | 24.64173 | 36138 ft | 357 kts | 332° |
| 2026-05-07 19:21 | 39.60182 | 24.62038 | 36137 ft | 357 kts | 332° |
| 2026-05-07 19:21 | 39.64836 | 24.59913 | 36137 ft | 357 kts | 332° |
| 2026-05-07 19:22 | 39.69522 | 24.57774 | 36139 ft | 357 kts | 332° |
| 2026-05-07 19:22 | 39.74210 | 24.55619 | 36137 ft | 357 kts | 332° |
| 2026-05-07 19:23 | 39.77153 | 24.54272 | 36138 ft | 357 kts | 332° |
| 2026-05-07 19:23 | 39.81811 | 24.52135 | 36140 ft | 357 kts | 332° |
| 2026-05-07 19:24 | 39.86500 | 24.49970 | 36142 ft | 358 kts | 332° |
| 2026-05-07 19:24 | 39.89484 | 24.48596 | 36138 ft | 358 kts | 332° |
| 2026-05-07 19:25 | 39.94202 | 24.46426 | 36137 ft | 358 kts | 332° |
| 2026-05-07 19:25 | 39.98868 | 24.44267 | 36136 ft | 358 kts | 332° |
| 2026-05-07 19:26 | 40.03566 | 24.42090 | 36131 ft | 359 kts | 332° |
| 2026-05-07 19:26 | 40.08273 | 24.39910 | 36131 ft | 359 kts | 332° |
| 2026-05-07 19:27 | 40.12988 | 24.37727 | 36126 ft | 360 kts | 332° |
| 2026-05-07 19:27 | 40.17696 | 24.35541 | 36115 ft | 360 kts | 332° |
| 2026-05-07 19:28 | 40.22395 | 24.33351 | 36112 ft | 361 kts | 332° |
| 2026-05-07 19:28 | 40.27129 | 24.31142 | 36115 ft | 362 kts | 332° |
| 2026-05-07 19:29 | 40.31873 | 24.28928 | 36119 ft | 362 kts | 332° |
| 2026-05-07 19:29 | 40.36616 | 24.26705 | 36119 ft | 362 kts | 332° |
| 2026-05-07 19:30 | 40.41338 | 24.24497 | 36120 ft | 363 kts | 332° |
| 2026-05-07 19:30 | 40.46099 | 24.22273 | 36119 ft | 364 kts | 332° |
| 2026-05-07 19:31 | 40.50867 | 24.20036 | 36114 ft | 364 kts | 332° |
| 2026-05-07 19:31 | 40.55648 | 24.17790 | 36120 ft | 365 kts | 332° |
| 2026-05-07 19:32 | 40.60437 | 24.15534 | 36115 ft | 366 kts | 332° |
| 2026-05-07 19:32 | 40.65200 | 24.13291 | 36116 ft | 367 kts | 332° |
| 2026-05-07 19:33 | 40.70009 | 24.11018 | 36113 ft | 368 kts | 332° |
| 2026-05-07 19:33 | 40.74827 | 24.08729 | 36113 ft | 369 kts | 332° |
| 2026-05-07 19:34 | 40.79664 | 24.06434 | 36111 ft | 370 kts | 332° |
| 2026-05-07 19:34 | 40.84476 | 24.04157 | 36098 ft | 371 kts | 332° |
| 2026-05-07 19:35 | 40.89346 | 24.01842 | 36107 ft | 373 kts | 332° |
| 2026-05-07 19:35 | 40.94232 | 23.99518 | 36103 ft | 373 kts | 332° |
| 2026-05-07 19:36 | 40.99124 | 23.97197 | 36098 ft | 374 kts | 332° |
| 2026-05-07 19:36 | 41.03992 | 23.94870 | 36105 ft | 375 kts | 332° |
| 2026-05-07 19:37 | 41.08905 | 23.92504 | 36100 ft | 376 kts | 332° |
| 2026-05-07 19:37 | 41.13842 | 23.90139 | 36104 ft | 378 kts | 332° |
| 2026-05-07 19:38 | 41.18798 | 23.87761 | 36106 ft | 379 kts | 332° |
| 2026-05-07 19:38 | 41.23734 | 23.85393 | 36111 ft | 380 kts | 332° |
| 2026-05-07 19:39 | 41.28718 | 23.83001 | 36122 ft | 382 kts | 332° |
| 2026-05-07 19:39 | 41.33549 | 23.80665 | 36117 ft | 383 kts | 332° |
| 2026-05-07 19:40 | 41.37206 | 23.78896 | 36114 ft | 384 kts | 332° |
| 2026-05-07 19:40 | 41.41100 | 23.77321 | 36128 ft | 395 kts | 341° |
| 2026-05-07 19:41 | 41.46149 | 23.76202 | 36129 ft | 400 kts | 342° |
| 2026-05-07 19:41 | 41.51235 | 23.75140 | 36136 ft | 400 kts | 343° |
| 2026-05-07 19:42 | 41.56747 | 23.74012 | 36133 ft | 403 kts | 343° |
| 2026-05-07 19:42 | 41.62263 | 23.72868 | 36136 ft | 404 kts | 343° |
| 2026-05-07 19:43 | 41.67823 | 23.71712 | 36134 ft | 405 kts | 343° |
| 2026-05-07 19:43 | 41.73409 | 23.70545 | 36136 ft | 407 kts | 343° |
| 2026-05-07 19:44 | 41.79008 | 23.69364 | 36140 ft | 408 kts | 343° |
| 2026-05-07 19:44 | 41.84585 | 23.68191 | 36140 ft | 409 kts | 343° |
| 2026-05-07 19:45 | 41.90213 | 23.67006 | 36139 ft | 410 kts | 343° |
| 2026-05-07 19:45 | 41.95854 | 23.65812 | 36134 ft | 411 kts | 343° |
| 2026-05-07 19:46 | 42.01513 | 23.64618 | 36128 ft | 412 kts | 344° |
| 2026-05-07 19:46 | 42.07176 | 23.63415 | 36125 ft | 413 kts | 344° |
| 2026-05-07 19:47 | 42.12818 | 23.62215 | 36121 ft | 414 kts | 344° |
| 2026-05-07 19:47 | 42.18505 | 23.61010 | 36120 ft | 414 kts | 345° |
| 2026-05-07 19:48 | 42.24203 | 23.59803 | 36118 ft | 415 kts | 345° |
| 2026-05-07 19:48 | 42.29920 | 23.58583 | 36118 ft | 417 kts | 345° |
| 2026-05-07 19:49 | 42.35618 | 23.57364 | 36117 ft | 418 kts | 345° |
| 2026-05-07 19:49 | 42.41369 | 23.56127 | 36112 ft | 419 kts | 345° |
| 2026-05-07 19:50 | 42.47116 | 23.54900 | 36112 ft | 419 kts | 345° |
| 2026-05-07 19:50 | 42.52886 | 23.53666 | 36112 ft | 419 kts | 345° |
| 2026-05-07 19:51 | 42.58617 | 23.52426 | 36114 ft | 420 kts | 345° |
| 2026-05-07 19:51 | 42.64391 | 23.51180 | 36113 ft | 421 kts | 345° |
| 2026-05-07 19:52 | 42.70186 | 23.49927 | 36113 ft | 422 kts | 345° |
| 2026-05-07 19:52 | 42.75982 | 23.48674 | 36116 ft | 422 kts | 345° |
| 2026-05-07 19:53 | 42.81794 | 23.47419 | 36113 ft | 423 kts | 345° |
| 2026-05-07 19:53 | 42.87570 | 23.46162 | 36102 ft | 423 kts | 345° |
| 2026-05-07 19:54 | 42.93395 | 23.44896 | 36106 ft | 424 kts | 345° |
| 2026-05-07 19:54 | 42.99231 | 23.43624 | 36096 ft | 425 kts | 346° |
| 2026-05-07 19:55 | 43.05078 | 23.42345 | 36091 ft | 425 kts | 346° |
| 2026-05-07 19:55 | 43.10886 | 23.41070 | 36084 ft | 426 kts | 345° |
| 2026-05-07 19:56 | 43.16738 | 23.39787 | 36083 ft | 426 kts | 346° |
| 2026-05-07 19:56 | 43.22602 | 23.38501 | 36081 ft | 427 kts | 346° |
| 2026-05-07 19:57 | 43.28279 | 23.37246 | 36074 ft | 427 kts | 346° |
| 2026-05-07 19:57 | 43.34153 | 23.35951 | 36071 ft | 428 kts | 346° |
| 2026-05-07 19:58 | 43.38816 | 23.34919 | 36068 ft | 428 kts | 346° |
| 2026-05-07 19:58 | 43.44699 | 23.33612 | 36060 ft | 429 kts | 346° |
| 2026-05-07 19:59 | 43.50594 | 23.32307 | 36060 ft | 429 kts | 346° |
| 2026-05-07 19:59 | 43.56499 | 23.30997 | 36058 ft | 430 kts | 346° |
| 2026-05-07 20:00 | 43.62370 | 23.29694 | 36056 ft | 430 kts | 346° |
| 2026-05-07 20:00 | 43.68283 | 23.28377 | 36052 ft | 430 kts | 346° |
| 2026-05-07 20:01 | 43.74197 | 23.27052 | 36051 ft | 431 kts | 346° |
| 2026-05-07 20:01 | 43.80122 | 23.25727 | 36054 ft | 431 kts | 346° |
| 2026-05-07 20:02 | 43.85757 | 23.23408 | 36046 ft | 422 kts | 330° |
| 2026-05-07 20:02 | 43.91046 | 23.19868 | 36045 ft | 422 kts | 330° |
| 2026-05-07 20:03 | 43.96346 | 23.16328 | 36041 ft | 423 kts | 330° |
| 2026-05-07 20:03 | 44.01655 | 23.12783 | 36042 ft | 424 kts | 330° |
| 2026-05-07 20:04 | 44.06972 | 23.09230 | 36042 ft | 424 kts | 330° |
| 2026-05-07 20:04 | 44.12256 | 23.05681 | 36041 ft | 425 kts | 330° |
| 2026-05-07 20:05 | 44.17587 | 23.02099 | 36042 ft | 426 kts | 330° |
| 2026-05-07 20:05 | 44.22920 | 22.98506 | 36045 ft | 426 kts | 330° |
| 2026-05-07 20:06 | 44.28254 | 22.94897 | 36048 ft | 426 kts | 330° |
| 2026-05-07 20:06 | 44.33560 | 22.91302 | 36053 ft | 427 kts | 330° |
| 2026-05-07 20:07 | 44.38913 | 22.87681 | 36053 ft | 428 kts | 330° |
| 2026-05-07 20:07 | 44.44271 | 22.84046 | 36054 ft | 428 kts | 330° |
| 2026-05-07 20:08 | 44.49629 | 22.80394 | 36053 ft | 429 kts | 330° |
| 2026-05-07 20:08 | 44.55001 | 22.76736 | 36054 ft | 429 kts | 330° |
| 2026-05-07 20:09 | 44.60339 | 22.73088 | 36049 ft | 430 kts | 330° |
| 2026-05-07 20:10 | 44.68399 | 22.67558 | 36058 ft | 430 kts | 330° |
| 2026-05-07 20:10 | 44.73782 | 22.63861 | 36058 ft | 431 kts | 330° |
| 2026-05-07 20:11 | 44.79135 | 22.60155 | 36079 ft | 431 kts | 329° |
| 2026-05-07 20:11 | 44.84426 | 22.56197 | 36080 ft | 430 kts | 327° |
| 2026-05-07 20:12 | 44.89671 | 22.52127 | 36077 ft | 431 kts | 327° |
| 2026-05-07 20:12 | 44.94943 | 22.48070 | 36083 ft | 431 kts | 327° |
| 2026-05-07 20:13 | 45.00228 | 22.44043 | 36090 ft | 432 kts | 327° |
| 2026-05-07 20:13 | 45.05309 | 22.40175 | 36083 ft | 433 kts | 327° |
| 2026-05-07 20:14 | 45.07533 | 22.38499 | 36078 ft | 433 kts | 328° |
| 2026-05-07 20:14 | 45.12833 | 22.34457 | 36084 ft | 433 kts | 327° |
| 2026-05-07 20:15 | 45.18127 | 22.30365 | 36087 ft | 434 kts | 327° |
| 2026-05-07 20:15 | 45.23428 | 22.26277 | 36072 ft | 434 kts | 327° |
| 2026-05-07 20:16 | 45.28699 | 22.22209 | 36075 ft | 435 kts | 327° |
| 2026-05-07 20:16 | 45.34017 | 22.18101 | 36072 ft | 435 kts | 327° |
| 2026-05-07 20:17 | 45.39336 | 22.13984 | 36074 ft | 435 kts | 327° |
| 2026-05-07 20:17 | 45.44655 | 22.09851 | 36067 ft | 436 kts | 327° |
| 2026-05-07 20:18 | 45.49953 | 22.05739 | 36065 ft | 436 kts | 327° |
| 2026-05-07 20:18 | 45.55283 | 22.01594 | 36065 ft | 437 kts | 327° |
| 2026-05-07 20:19 | 45.60611 | 21.97433 | 36063 ft | 437 kts | 327° |
| 2026-05-07 20:19 | 45.65945 | 21.93245 | 36061 ft | 437 kts | 327° |
| 2026-05-07 20:20 | 45.71280 | 21.89060 | 36065 ft | 437 kts | 327° |
| 2026-05-07 20:20 | 45.76579 | 21.84897 | 36059 ft | 438 kts | 327° |
| 2026-05-07 20:21 | 45.81916 | 21.80687 | 36054 ft | 438 kts | 327° |
| 2026-05-07 20:21 | 45.87251 | 21.76479 | 36055 ft | 438 kts | 327° |
| 2026-05-07 20:22 | 45.92588 | 21.72261 | 36054 ft | 438 kts | 327° |
| 2026-05-07 20:22 | 45.97891 | 21.68039 | 36058 ft | 438 kts | 327° |
| 2026-05-07 20:23 | 46.03226 | 21.63785 | 36053 ft | 438 kts | 327° |
| 2026-05-07 20:23 | 46.08563 | 21.59534 | 36063 ft | 438 kts | 327° |
| 2026-05-07 20:24 | 46.13910 | 21.55288 | 36065 ft | 439 kts | 327° |
| 2026-05-07 20:24 | 46.19245 | 21.51025 | 36071 ft | 438 kts | 326° |
| 2026-05-07 20:25 | 46.24535 | 21.46771 | 36069 ft | 438 kts | 326° |
| 2026-05-07 20:25 | 46.29865 | 21.42479 | 36072 ft | 439 kts | 326° |
| 2026-05-07 20:26 | 46.35194 | 21.38181 | 36071 ft | 439 kts | 326° |
| 2026-05-07 20:26 | 46.40532 | 21.33880 | 36067 ft | 439 kts | 326° |
| 2026-05-07 20:27 | 46.44956 | 21.30298 | 36062 ft | 439 kts | 326° |
| 2026-05-07 20:27 | 46.50752 | 21.24546 | 36056 ft | 429 kts | 311° |
| 2026-05-07 20:28 | 46.54830 | 21.18280 | 36051 ft | 427 kts | 308° |
| 2026-05-07 20:28 | 46.58909 | 21.11976 | 36048 ft | 428 kts | 308° |
| 2026-05-07 20:29 | 46.62297 | 21.06745 | 36049 ft | 427 kts | 308° |
| 2026-05-07 20:29 | 46.67018 | 20.99413 | 36050 ft | 427 kts | 308° |
| 2026-05-07 20:30 | 46.71077 | 20.93083 | 36044 ft | 428 kts | 308° |
| 2026-05-07 20:30 | 46.74465 | 20.87800 | 36047 ft | 430 kts | 308° |
| 2026-05-07 20:31 | 46.79203 | 20.80393 | 36045 ft | 429 kts | 308° |
| 2026-05-07 20:31 | 46.83274 | 20.74011 | 36044 ft | 429 kts | 308° |
| 2026-05-07 20:32 | 46.86647 | 20.68700 | 36044 ft | 429 kts | 308° |
| 2026-05-07 20:32 | 46.90712 | 20.62293 | 36048 ft | 430 kts | 308° |
| 2026-05-07 20:33 | 46.94776 | 20.55873 | 36053 ft | 430 kts | 307° |
| 2026-05-07 20:33 | 46.98837 | 20.49448 | 36054 ft | 430 kts | 307° |
| 2026-05-07 20:34 | 47.02874 | 20.43045 | 36051 ft | 430 kts | 307° |
| 2026-05-07 20:34 | 47.06937 | 20.36586 | 36054 ft | 431 kts | 307° |
| 2026-05-07 20:35 | 47.10997 | 20.30112 | 36056 ft | 431 kts | 307° |
| 2026-05-07 20:35 | 47.15060 | 20.23635 | 36057 ft | 431 kts | 307° |
| 2026-05-07 20:36 | 47.19106 | 20.17224 | 36054 ft | 431 kts | 307° |
| 2026-05-07 20:36 | 47.23210 | 20.10792 | 36059 ft | 431 kts | 307° |
| 2026-05-07 20:37 | 47.27313 | 20.04355 | 36075 ft | 431 kts | 307° |
| 2026-05-07 20:37 | 47.31414 | 19.97876 | 36062 ft | 432 kts | 307° |
| 2026-05-07 20:38 | 47.35473 | 19.91428 | 36061 ft | 432 kts | 307° |
| 2026-05-07 20:38 | 47.39562 | 19.84926 | 36062 ft | 432 kts | 307° |
| 2026-05-07 20:39 | 47.43620 | 19.78385 | 36064 ft | 432 kts | 306° |
| 2026-05-07 20:39 | 47.47632 | 19.71784 | 36068 ft | 432 kts | 306° |
| 2026-05-07 20:40 | 47.51648 | 19.65156 | 36074 ft | 432 kts | 306° |
| 2026-05-07 20:40 | 47.55637 | 19.58589 | 36076 ft | 432 kts | 306° |
| 2026-05-07 20:41 | 47.59659 | 19.51971 | 36080 ft | 432 kts | 305° |
| 2026-05-07 20:41 | 47.61295 | 19.48353 | 36082 ft | 417 kts | 286° |
| 2026-05-07 20:41 | 47.61879 | 19.44257 | 36080 ft | 401 kts | 265° |
| 2026-05-07 20:41 | 47.61329 | 19.40280 | 36075 ft | 392 kts | 243° |
| 2026-05-07 20:42 | 47.59760 | 19.37034 | 36056 ft | 390 kts | 223° |
| 2026-05-07 20:42 | 47.55172 | 19.32821 | 36035 ft | 397 kts | 201° |
| 2026-05-07 20:42 | 47.52408 | 19.32275 | 36033 ft | 409 kts | 179° |
| 2026-05-07 20:43 | 47.49628 | 19.33407 | 36025 ft | 425 kts | 158° |
| 2026-05-07 20:43 | 47.47243 | 19.36075 | 36022 ft | 440 kts | 139° |
| 2026-05-07 20:43 | 47.45336 | 19.39685 | 36019 ft | 449 kts | 129° |
| 2026-05-07 20:44 | 47.41960 | 19.47543 | 36027 ft | 456 kts | 128° |
| 2026-05-07 20:44 | 47.38196 | 19.54791 | 36045 ft | 436 kts | 138° |
| 2026-05-07 20:44 | 47.36170 | 19.58026 | 36044 ft | 423 kts | 140° |
| 2026-05-07 20:45 | 47.33978 | 19.60700 | 36043 ft | 397 kts | 157° |
| 2026-05-07 20:45 | 47.31532 | 19.62288 | 36045 ft | 374 kts | 171° |
| 2026-05-07 20:45 | 47.29042 | 19.63011 | 36050 ft | 360 kts | 182° |
| 2026-05-07 20:45 | 47.26572 | 19.62934 | 36049 ft | 351 kts | 194° |
| 2026-05-07 20:46 | 47.24236 | 19.62056 | 36048 ft | 344 kts | 206° |
| 2026-05-07 20:46 | 47.22139 | 19.60416 | 36047 ft | 340 kts | 218° |
| 2026-05-07 20:46 | 47.20382 | 19.58125 | 36050 ft | 338 kts | 230° |
| 2026-05-07 20:46 | 47.19022 | 19.55316 | 36053 ft | 338 kts | 241° |
| 2026-05-07 20:47 | 47.18120 | 19.52121 | 36053 ft | 340 kts | 253° |
| 2026-05-07 20:47 | 47.17735 | 19.48725 | 36054 ft | 345 kts | 264° |
| 2026-05-07 20:47 | 47.17893 | 19.45192 | 36053 ft | 351 kts | 276° |
| 2026-05-07 20:47 | 47.18618 | 19.41734 | 36054 ft | 359 kts | 289° |
| 2026-05-07 20:48 | 47.19912 | 19.38547 | 36056 ft | 369 kts | 302° |
| 2026-05-07 20:48 | 47.23419 | 19.32942 | 36055 ft | 374 kts | 306° |
| 2026-05-07 20:49 | 47.26968 | 19.27351 | 36055 ft | 373 kts | 306° |
| 2026-05-07 20:49 | 47.30776 | 19.22107 | 36054 ft | 384 kts | 322° |
| 2026-05-07 20:49 | 47.33237 | 19.20447 | 36059 ft | 397 kts | 338° |
| 2026-05-07 20:50 | 47.35964 | 19.19824 | 36057 ft | 409 kts | 355° |
| 2026-05-07 20:50 | 47.38816 | 19.20358 | 36058 ft | 419 kts | 12° |
| 2026-05-07 20:50 | 47.41508 | 19.22079 | 36058 ft | 427 kts | 31° |
| 2026-05-07 20:50 | 47.43798 | 19.24899 | 36057 ft | 431 kts | 49° |
| 2026-05-07 20:51 | 47.45452 | 19.28576 | 36057 ft | 431 kts | 68° |
| 2026-05-07 20:51 | 47.46325 | 19.32769 | 36055 ft | 426 kts | 86° |
| 2026-05-07 20:51 | 47.46362 | 19.37096 | 36055 ft | 418 kts | 104° |
| 2026-05-07 20:51 | 47.45604 | 19.41170 | 36055 ft | 407 kts | 121° |
| 2026-05-07 20:52 | 47.44196 | 19.44657 | 36054 ft | 396 kts | 134° |
| 2026-05-07 20:52 | 47.40632 | 19.50817 | 36053 ft | 392 kts | 140° |
| 2026-05-07 20:53 | 47.36833 | 19.56570 | 36047 ft | 391 kts | 141° |
| 2026-05-07 20:53 | 47.32646 | 19.61342 | 36045 ft | 370 kts | 166° |
| 2026-05-07 20:53 | 47.30213 | 19.62288 | 36047 ft | 357 kts | 181° |
| 2026-05-07 20:54 | 47.27800 | 19.62214 | 36048 ft | 348 kts | 195° |
| 2026-05-07 20:54 | 47.25523 | 19.61173 | 36048 ft | 341 kts | 210° |
| 2026-05-07 20:54 | 47.23553 | 19.59298 | 36050 ft | 337 kts | 223° |
| 2026-05-07 20:54 | 47.21995 | 19.56744 | 36050 ft | 336 kts | 237° |
| 2026-05-07 20:55 | 47.20947 | 19.53676 | 36051 ft | 338 kts | 250° |
| 2026-05-07 20:55 | 47.20489 | 19.50275 | 36052 ft | 343 kts | 264° |
| 2026-05-07 20:55 | 47.20675 | 19.46755 | 36054 ft | 350 kts | 278° |
| 2026-05-07 20:55 | 47.21531 | 19.43367 | 36053 ft | 360 kts | 294° |
| 2026-05-07 20:56 | 47.22985 | 19.40319 | 36057 ft | 368 kts | 302° |
| 2026-05-07 20:56 | 47.26400 | 19.34698 | 36056 ft | 372 kts | 307° |
| 2026-05-07 20:57 | 47.30018 | 19.29237 | 36055 ft | 373 kts | 308° |
| 2026-05-07 20:57 | 47.32047 | 19.26790 | 36053 ft | 383 kts | 323° |
| 2026-05-07 20:57 | 47.34531 | 19.25229 | 36056 ft | 397 kts | 341° |
| 2026-05-07 20:57 | 47.37316 | 19.24848 | 36057 ft | 410 kts | 0° |
| 2026-05-07 20:58 | 47.40116 | 19.25855 | 36056 ft | 421 kts | 22° |
| 2026-05-07 20:58 | 47.42576 | 19.28228 | 36058 ft | 428 kts | 44° |
| 2026-05-07 20:58 | 47.44354 | 19.31657 | 36054 ft | 429 kts | 65° |
| 2026-05-07 20:58 | 47.45281 | 19.35803 | 36053 ft | 424 kts | 87° |
| 2026-05-07 20:59 | 47.45236 | 19.40090 | 36057 ft | 414 kts | 108° |
| 2026-05-07 20:59 | 47.44288 | 19.44009 | 36055 ft | 400 kts | 127° |
| 2026-05-07 20:59 | 47.42679 | 19.47278 | 36057 ft | 393 kts | 137° |
| 2026-05-07 21:00 | 47.39025 | 19.53241 | 36053 ft | 390 kts | 141° |
| 2026-05-07 21:00 | 47.35250 | 19.58901 | 36043 ft | 386 kts | 146° |
| 2026-05-07 21:00 | 47.33075 | 19.61064 | 36049 ft | 371 kts | 163° |
| 2026-05-07 21:01 | 47.30658 | 19.62184 | 36048 ft | 359 kts | 179° |
| 2026-05-07 21:01 | 47.28210 | 19.62258 | 36049 ft | 349 kts | 193° |
| 2026-05-07 21:01 | 47.25898 | 19.61365 | 36053 ft | 341 kts | 207° |
| 2026-05-07 21:01 | 47.23871 | 19.59611 | 36052 ft | 337 kts | 221° |
| 2026-05-07 21:02 | 47.22260 | 19.57140 | 36053 ft | 336 kts | 235° |
| 2026-05-07 21:02 | 47.21147 | 19.54118 | 36055 ft | 337 kts | 249° |
| 2026-05-07 21:02 | 47.20615 | 19.50745 | 36055 ft | 342 kts | 262° |
| 2026-05-07 21:02 | 47.20722 | 19.47237 | 36053 ft | 349 kts | 277° |
| 2026-05-07 21:03 | 47.21484 | 19.43858 | 36054 ft | 359 kts | 291° |
| 2026-05-07 21:03 | 47.22886 | 19.40776 | 36061 ft | 368 kts | 302° |
| 2026-05-07 21:03 | 47.24551 | 19.37885 | 36059 ft | 371 kts | 305° |
| 2026-05-07 21:04 | 47.28115 | 19.32369 | 36056 ft | 373 kts | 307° |
| 2026-05-07 21:04 | 47.31916 | 19.27137 | 36054 ft | 382 kts | 322° |
| 2026-05-07 21:04 | 47.34372 | 19.25491 | 36056 ft | 395 kts | 339° |
| 2026-05-07 21:05 | 47.37103 | 19.25018 | 36057 ft | 409 kts | 359° |
| 2026-05-07 21:05 | 47.39909 | 19.25912 | 36058 ft | 420 kts | 20° |
| 2026-05-07 21:05 | 47.42408 | 19.28190 | 36061 ft | 427 kts | 42° |
| 2026-05-07 21:05 | 47.44262 | 19.31597 | 36058 ft | 428 kts | 64° |
| 2026-05-07 21:06 | 47.45237 | 19.35716 | 36054 ft | 424 kts | 86° |
| 2026-05-07 21:06 | 47.45226 | 19.39990 | 36061 ft | 413 kts | 107° |
| 2026-05-07 21:06 | 47.44300 | 19.43922 | 36052 ft | 400 kts | 127° |
| 2026-05-07 21:07 | 47.40916 | 19.50256 | 36054 ft | 391 kts | 139° |
| 2026-05-07 21:07 | 47.37200 | 19.56007 | 36051 ft | 389 kts | 141° |
| 2026-05-07 21:08 | 47.33125 | 19.61030 | 36049 ft | 372 kts | 162° |
| 2026-05-07 21:08 | 47.30713 | 19.62167 | 36052 ft | 359 kts | 178° |
| 2026-05-07 21:08 | 47.28260 | 19.62261 | 36050 ft | 349 kts | 193° |
| 2026-05-07 21:08 | 47.25945 | 19.61370 | 36051 ft | 342 kts | 208° |
| 2026-05-07 21:09 | 47.23913 | 19.59607 | 36053 ft | 338 kts | 221° |
| 2026-05-07 21:09 | 47.22292 | 19.57135 | 36055 ft | 336 kts | 235° |
| 2026-05-07 21:09 | 47.21172 | 19.54125 | 36054 ft | 338 kts | 249° |
| 2026-05-07 21:09 | 47.20638 | 19.50752 | 36056 ft | 342 kts | 263° |
| 2026-05-07 21:10 | 47.20749 | 19.47281 | 36056 ft | 349 kts | 277° |
| 2026-05-07 21:10 | 47.21525 | 19.43865 | 36056 ft | 359 kts | 292° |
| 2026-05-07 21:10 | 47.22935 | 19.40777 | 36062 ft | 368 kts | 302° |
| 2026-05-07 21:11 | 47.26351 | 19.35110 | 36059 ft | 371 kts | 307° |
| 2026-05-07 21:11 | 47.31928 | 19.27172 | 36054 ft | 380 kts | 322° |
| 2026-05-07 21:12 | 47.34338 | 19.25548 | 36060 ft | 394 kts | 339° |
| 2026-05-07 21:12 | 47.37130 | 19.25069 | 36058 ft | 407 kts | 359° |
| 2026-05-07 21:12 | 47.39887 | 19.25954 | 36065 ft | 418 kts | 20° |
| 2026-05-07 21:12 | 47.42376 | 19.28211 | 36053 ft | 425 kts | 42° |
| 2026-05-07 21:13 | 47.44232 | 19.31598 | 36055 ft | 426 kts | 64° |
| 2026-05-07 21:13 | 47.45212 | 19.35680 | 36054 ft | 421 kts | 85° |
| 2026-05-07 21:13 | 47.45221 | 19.39944 | 36059 ft | 412 kts | 107° |
| 2026-05-07 21:13 | 47.44322 | 19.43870 | 36058 ft | 399 kts | 126° |
| 2026-05-07 21:14 | 47.40992 | 19.50147 | 36052 ft | 389 kts | 139° |
| 2026-05-07 21:14 | 47.37269 | 19.55915 | 36053 ft | 388 kts | 141° |
| 2026-05-07 21:15 | 47.33221 | 19.60941 | 36050 ft | 371 kts | 162° |
| 2026-05-07 21:15 | 47.30822 | 19.62107 | 36054 ft | 358 kts | 178° |
| 2026-05-07 21:15 | 47.28376 | 19.62226 | 36054 ft | 348 kts | 193° |
| 2026-05-07 21:16 | 47.26063 | 19.61356 | 36055 ft | 341 kts | 207° |
| 2026-05-07 21:16 | 47.24036 | 19.59626 | 36055 ft | 336 kts | 221° |
| 2026-05-07 21:16 | 47.22434 | 19.57209 | 36055 ft | 335 kts | 235° |
| 2026-05-07 21:16 | 47.21311 | 19.54210 | 36057 ft | 336 kts | 249° |
| 2026-05-07 21:17 | 47.20777 | 19.50858 | 36057 ft | 341 kts | 263° |
| 2026-05-07 21:17 | 47.20883 | 19.47354 | 36056 ft | 348 kts | 277° |
| 2026-05-07 21:17 | 47.21658 | 19.43951 | 36057 ft | 357 kts | 292° |
| 2026-05-07 21:17 | 47.23064 | 19.40882 | 36060 ft | 366 kts | 302° |
| 2026-05-07 21:18 | 47.26470 | 19.35240 | 36058 ft | 371 kts | 307° |
| 2026-05-07 21:18 | 47.30071 | 19.29795 | 36057 ft | 371 kts | 307° |
| 2026-05-07 21:19 | 47.32038 | 19.27349 | 36054 ft | 381 kts | 322° |
| 2026-05-07 21:19 | 47.34491 | 19.25747 | 36054 ft | 394 kts | 340° |
| 2026-05-07 21:19 | 47.37249 | 19.25322 | 36058 ft | 407 kts | 360° |
| 2026-05-07 21:19 | 47.40041 | 19.26282 | 36055 ft | 418 kts | 21° |
| 2026-05-07 21:20 | 47.42494 | 19.28615 | 36055 ft | 425 kts | 43° |
| 2026-05-07 21:20 | 47.44290 | 19.32067 | 36055 ft | 426 kts | 65° |
| 2026-05-07 21:20 | 47.45193 | 19.36187 | 36054 ft | 421 kts | 87° |
| 2026-05-07 21:20 | 47.45128 | 19.40440 | 36059 ft | 410 kts | 108° |
| 2026-05-07 21:21 | 47.44168 | 19.44262 | 36052 ft | 397 kts | 128° |
| 2026-05-07 21:21 | 47.42550 | 19.47492 | 36059 ft | 390 kts | 137° |
| 2026-05-07 21:21 | 47.38915 | 19.53402 | 36053 ft | 388 kts | 141° |
| 2026-05-07 21:22 | 47.35131 | 19.59062 | 36050 ft | 384 kts | 147° |
| 2026-05-07 21:22 | 47.32939 | 19.61140 | 36052 ft | 369 kts | 164° |
| 2026-05-07 21:22 | 47.30522 | 19.62178 | 36054 ft | 357 kts | 179° |
| 2026-05-07 21:23 | 47.28077 | 19.62178 | 36054 ft | 348 kts | 194° |
| 2026-05-07 21:23 | 47.25790 | 19.61197 | 36054 ft | 340 kts | 209° |
| 2026-05-07 21:23 | 47.23836 | 19.59379 | 36059 ft | 336 kts | 223° |
| 2026-05-07 21:23 | 47.22274 | 19.56846 | 36059 ft | 335 kts | 237° |
| 2026-05-07 21:24 | 47.21222 | 19.53789 | 36059 ft | 337 kts | 250° |
| 2026-05-07 21:24 | 47.20762 | 19.50403 | 36059 ft | 341 kts | 264° |
| 2026-05-07 21:24 | 47.20948 | 19.46901 | 36060 ft | 349 kts | 279° |
| 2026-05-07 21:24 | 47.21813 | 19.43528 | 36060 ft | 359 kts | 294° |
| 2026-05-07 21:25 | 47.24948 | 19.37647 | 36061 ft | 369 kts | 306° |
| 2026-05-07 21:25 | 47.28485 | 19.32197 | 36057 ft | 371 kts | 308° |
| 2026-05-07 21:26 | 47.32338 | 19.27098 | 36060 ft | 383 kts | 324° |
| 2026-05-07 21:26 | 47.34851 | 19.25633 | 36058 ft | 396 kts | 343° |
| 2026-05-07 21:26 | 47.37634 | 19.25387 | 36057 ft | 409 kts | 3° |
| 2026-05-07 21:27 | 47.40398 | 19.26535 | 36055 ft | 419 kts | 24° |
| 2026-05-07 21:27 | 47.42784 | 19.29027 | 36056 ft | 425 kts | 46° |
| 2026-05-07 21:27 | 47.44466 | 19.32601 | 36057 ft | 425 kts | 69° |
| 2026-05-07 21:27 | 47.45234 | 19.36761 | 36053 ft | 418 kts | 90° |
| 2026-05-07 21:28 | 47.45044 | 19.40925 | 36055 ft | 407 kts | 110° |
| 2026-05-07 21:28 | 47.43984 | 19.44700 | 36056 ft | 394 kts | 130° |
| 2026-05-07 21:28 | 47.40549 | 19.50862 | 36054 ft | 387 kts | 140° |
| 2026-05-07 21:29 | 47.36832 | 19.56577 | 36056 ft | 386 kts | 141° |
| 2026-05-07 21:29 | 47.32697 | 19.61288 | 36056 ft | 366 kts | 166° |
| 2026-05-07 21:30 | 47.30309 | 19.62188 | 36058 ft | 355 kts | 181° |
| 2026-05-07 21:30 | 47.27888 | 19.62080 | 36056 ft | 345 kts | 196° |
| 2026-05-07 21:30 | 47.25632 | 19.61003 | 36059 ft | 338 kts | 211° |
| 2026-05-07 21:30 | 47.23700 | 19.59080 | 36058 ft | 335 kts | 225° |
| 2026-05-07 21:31 | 47.22211 | 19.56477 | 36060 ft | 334 kts | 239° |
| 2026-05-07 21:31 | 47.21247 | 19.53370 | 36063 ft | 336 kts | 252° |
| 2026-05-07 21:31 | 47.20882 | 19.49969 | 36061 ft | 341 kts | 266° |
| 2026-05-07 21:31 | 47.21168 | 19.46476 | 36061 ft | 349 kts | 281° |
| 2026-05-07 21:32 | 47.22133 | 19.43165 | 36061 ft | 359 kts | 297° |
| 2026-05-07 21:32 | 47.23645 | 19.40200 | 36062 ft | 365 kts | 303° |
| 2026-05-07 21:32 | 47.27069 | 19.34666 | 36059 ft | 369 kts | 307° |
| 2026-05-07 21:33 | 47.30665 | 19.29259 | 36060 ft | 371 kts | 310° |
| 2026-05-07 21:33 | 47.32786 | 19.27007 | 36058 ft | 383 kts | 327° |
| 2026-05-07 21:33 | 47.35343 | 19.25731 | 36057 ft | 396 kts | 346° |
| 2026-05-07 21:34 | 47.38137 | 19.25713 | 36056 ft | 409 kts | 6° |
| 2026-05-07 21:34 | 47.40841 | 19.27097 | 36061 ft | 419 kts | 28° |
| 2026-05-07 21:34 | 47.43114 | 19.29801 | 36055 ft | 423 kts | 50° |
| 2026-05-07 21:34 | 47.44621 | 19.33443 | 36055 ft | 422 kts | 72° |
| 2026-05-07 21:35 | 47.45224 | 19.37631 | 36055 ft | 415 kts | 94° |
| 2026-05-07 21:35 | 47.44861 | 19.41792 | 36060 ft | 404 kts | 115° |
| 2026-05-07 21:35 | 47.43642 | 19.45436 | 36057 ft | 390 kts | 134° |
| 2026-05-07 21:35 | 47.41944 | 19.48540 | 36056 ft | 388 kts | 138° |
| 2026-05-07 21:36 | 47.38290 | 19.54360 | 36058 ft | 386 kts | 141° |
| 2026-05-07 21:36 | 47.34440 | 19.59899 | 35300 ft | 389 kts | 153° |
| 2026-05-07 21:37 | 47.32029 | 19.61664 | 34382 ft | 387 kts | 171° |
| 2026-05-07 21:37 | 47.29478 | 19.62213 | 34221 ft | 367 kts | 185° |
| 2026-05-07 21:37 | 47.27018 | 19.61774 | 34117 ft | 348 kts | 200° |
| 2026-05-07 21:37 | 47.24846 | 19.60424 | 33989 ft | 333 kts | 214° |
| 2026-05-07 21:38 | 47.23082 | 19.58310 | 33852 ft | 323 kts | 228° |
| 2026-05-07 21:38 | 47.21801 | 19.55665 | 33713 ft | 316 kts | 241° |
| 2026-05-07 21:38 | 47.21020 | 19.52651 | 33577 ft | 317 kts | 254° |
| 2026-05-07 21:38 | 47.20781 | 19.49417 | 33443 ft | 321 kts | 267° |
| 2026-05-07 21:39 | 47.21122 | 19.46146 | 33307 ft | 329 kts | 281° |
| 2026-05-07 21:39 | 47.22057 | 19.43036 | 33170 ft | 339 kts | 295° |
| 2026-05-07 21:39 | 47.23480 | 19.40222 | 33046 ft | 345 kts | 302° |
| 2026-05-07 21:39 | 47.25046 | 19.37592 | 32917 ft | 348 kts | 305° |
| 2026-05-07 21:40 | 47.26711 | 19.35007 | 32785 ft | 349 kts | 306° |
| 2026-05-07 21:40 | 47.28406 | 19.32449 | 32649 ft | 348 kts | 307° |
| 2026-05-07 21:40 | 47.30091 | 19.29902 | 32524 ft | 347 kts | 306° |
| 2026-05-07 21:40 | 47.31924 | 19.27549 | 32387 ft | 355 kts | 320° |
| 2026-05-07 21:41 | 47.34182 | 19.25950 | 32262 ft | 367 kts | 337° |
| 2026-05-07 21:41 | 47.36737 | 19.25373 | 32132 ft | 379 kts | 356° |
| 2026-05-07 21:41 | 47.39360 | 19.25990 | 32002 ft | 387 kts | 17° |
| 2026-05-07 21:41 | 47.41731 | 19.27772 | 31886 ft | 391 kts | 37° |
| 2026-05-07 21:42 | 47.43644 | 19.30602 | 31738 ft | 389 kts | 58° |
| 2026-05-07 21:42 | 47.44847 | 19.34117 | 31621 ft | 381 kts | 78° |
| 2026-05-07 21:42 | 47.45266 | 19.37920 | 31493 ft | 370 kts | 97° |
| 2026-05-07 21:42 | 47.44917 | 19.41605 | 31363 ft | 357 kts | 115° |
| 2026-05-07 21:43 | 47.43908 | 19.44857 | 31244 ft | 343 kts | 132° |
| 2026-05-07 21:43 | 47.42486 | 19.47630 | 31114 ft | 337 kts | 138° |
| 2026-05-07 21:43 | 47.40941 | 19.50220 | 30988 ft | 334 kts | 141° |
| 2026-05-07 21:43 | 47.39365 | 19.52669 | 30863 ft | 333 kts | 142° |
| 2026-05-07 21:44 | 47.37753 | 19.55107 | 30736 ft | 331 kts | 142° |
| 2026-05-07 21:44 | 47.36150 | 19.57535 | 30614 ft | 330 kts | 141° |
| 2026-05-07 21:44 | 47.34451 | 19.59733 | 30485 ft | 318 kts | 156° |
| 2026-05-07 21:44 | 47.32465 | 19.60957 | 30362 ft | 304 kts | 175° |
| 2026-05-07 21:45 | 47.30398 | 19.61138 | 30237 ft | 295 kts | 192° |
| 2026-05-07 21:45 | 47.28452 | 19.60346 | 30117 ft | 289 kts | 208° |
| 2026-05-07 21:45 | 47.26801 | 19.58704 | 29975 ft | 287 kts | 224° |
| 2026-05-07 21:45 | 47.25599 | 19.56408 | 29833 ft | 289 kts | 240° |
| 2026-05-07 21:46 | 47.24932 | 19.53611 | 29696 ft | 294 kts | 257° |
| 2026-05-07 21:46 | 47.24911 | 19.50575 | 29553 ft | 302 kts | 274° |
| 2026-05-07 21:46 | 47.25592 | 19.47605 | 29408 ft | 315 kts | 292° |
| 2026-05-07 21:46 | 47.26908 | 19.44970 | 29275 ft | 323 kts | 303° |
| 2026-05-07 21:47 | 47.28406 | 19.42483 | 29139 ft | 325 kts | 305° |
| 2026-05-07 21:47 | 47.29959 | 19.40064 | 29001 ft | 326 kts | 306° |
| 2026-05-07 21:47 | 47.31532 | 19.37668 | 28866 ft | 325 kts | 306° |
| 2026-05-07 21:47 | 47.33122 | 19.35298 | 28718 ft | 327 kts | 312° |
| 2026-05-07 21:48 | 47.35057 | 19.33541 | 28591 ft | 340 kts | 334° |
| 2026-05-07 21:48 | 47.37411 | 19.32903 | 28453 ft | 352 kts | 358° |
| 2026-05-07 21:48 | 47.39817 | 19.33656 | 28314 ft | 359 kts | 24° |
| 2026-05-07 21:48 | 47.41852 | 19.35768 | 28183 ft | 359 kts | 50° |
| 2026-05-07 21:49 | 47.43150 | 19.38844 | 28039 ft | 351 kts | 76° |
| 2026-05-07 21:49 | 47.43553 | 19.42315 | 27910 ft | 337 kts | 99° |
| 2026-05-07 21:49 | 47.43090 | 19.45609 | 27776 ft | 322 kts | 122° |
| 2026-05-07 21:49 | 47.41935 | 19.48335 | 27643 ft | 309 kts | 137° |
| 2026-05-07 21:50 | 47.40554 | 19.50700 | 27515 ft | 308 kts | 140° |
| 2026-05-07 21:50 | 47.39098 | 19.53004 | 27380 ft | 306 kts | 141° |
| 2026-05-07 21:50 | 47.37622 | 19.55270 | 27247 ft | 306 kts | 141° |
| 2026-05-07 21:50 | 47.36149 | 19.57528 | 27116 ft | 305 kts | 141° |
| 2026-05-07 21:51 | 47.34589 | 19.59568 | 26989 ft | 294 kts | 156° |
| 2026-05-07 21:51 | 47.32742 | 19.60640 | 26848 ft | 281 kts | 176° |
| 2026-05-07 21:51 | 47.30829 | 19.60668 | 26721 ft | 273 kts | 194° |
| 2026-05-07 21:51 | 47.29067 | 19.59728 | 26584 ft | 269 kts | 212° |
| 2026-05-07 21:52 | 47.27641 | 19.57965 | 26463 ft | 269 kts | 230° |
| 2026-05-07 21:52 | 47.26715 | 19.55603 | 26337 ft | 274 kts | 248° |
| 2026-05-07 21:52 | 47.26394 | 19.52820 | 26215 ft | 282 kts | 266° |
| 2026-05-07 21:52 | 47.26784 | 19.49960 | 26090 ft | 292 kts | 287° |
| 2026-05-07 21:53 | 47.27890 | 19.47397 | 25969 ft | 303 kts | 303° |
| 2026-05-07 21:53 | 47.29283 | 19.45056 | 25846 ft | 305 kts | 305° |
| 2026-05-07 21:53 | 47.30739 | 19.42764 | 25738 ft | 306 kts | 306° |
| 2026-05-07 21:53 | 47.32210 | 19.40502 | 25603 ft | 306 kts | 307° |
| 2026-05-07 21:54 | 47.33690 | 19.38252 | 25483 ft | 307 kts | 309° |
| 2026-05-07 21:54 | 47.35460 | 19.36502 | 25355 ft | 319 kts | 333° |
| 2026-05-07 21:54 | 47.37660 | 19.35883 | 25232 ft | 329 kts | 360° |
| 2026-05-07 21:54 | 47.39890 | 19.36693 | 25109 ft | 334 kts | 28° |
| 2026-05-07 21:55 | 47.41677 | 19.38823 | 24992 ft | 331 kts | 56° |
| 2026-05-07 21:55 | 47.42679 | 19.41811 | 24869 ft | 321 kts | 83° |
| 2026-05-07 21:55 | 47.42772 | 19.45014 | 24747 ft | 307 kts | 108° |
| 2026-05-07 21:55 | 47.42052 | 19.47879 | 24630 ft | 292 kts | 130° |
| 2026-05-07 21:56 | 47.40832 | 19.50173 | 24515 ft | 287 kts | 138° |
| 2026-05-07 21:56 | 47.39498 | 19.52350 | 24397 ft | 286 kts | 140° |
| 2026-05-07 21:56 | 47.38132 | 19.54478 | 24275 ft | 284 kts | 141° |
| 2026-05-07 21:56 | 47.36764 | 19.56586 | 24158 ft | 284 kts | 140° |
| 2026-05-07 21:57 | 47.35391 | 19.58666 | 24036 ft | 281 kts | 146° |
| 2026-05-07 21:57 | 47.33766 | 19.60080 | 23914 ft | 267 kts | 168° |
| 2026-05-07 21:57 | 47.31963 | 19.60431 | 23803 ft | 259 kts | 188° |
| 2026-05-07 21:57 | 47.30244 | 19.59754 | 23688 ft | 256 kts | 208° |
| 2026-05-07 21:58 | 47.28839 | 19.58179 | 23547 ft | 257 kts | 228° |
| 2026-05-07 21:58 | 47.27925 | 19.55910 | 23422 ft | 262 kts | 248° |
| 2026-05-07 21:58 | 47.27668 | 19.53281 | 23283 ft | 269 kts | 269° |
| 2026-05-07 21:58 | 47.28161 | 19.50581 | 23147 ft | 281 kts | 292° |
| 2026-05-07 21:59 | 47.29345 | 19.48237 | 23013 ft | 289 kts | 304° |
| 2026-05-07 21:59 | 47.30700 | 19.46034 | 22901 ft | 291 kts | 306° |
| 2026-05-07 21:59 | 47.32092 | 19.43863 | 22742 ft | 291 kts | 307° |
| 2026-05-07 21:59 | 47.33486 | 19.41709 | 22619 ft | 290 kts | 307° |
| 2026-05-07 22:00 | 47.34949 | 19.39641 | 22476 ft | 296 kts | 320° |
| 2026-05-07 22:00 | 47.36861 | 19.38455 | 22340 ft | 306 kts | 348° |
| 2026-05-07 22:00 | 47.38995 | 19.38651 | 22196 ft | 313 kts | 18° |
| 2026-05-07 22:00 | 47.40827 | 19.40239 | 22064 ft | 312 kts | 48° |
| 2026-05-07 22:01 | 47.41973 | 19.42873 | 21933 ft | 303 kts | 78° |
| 2026-05-07 22:01 | 47.42212 | 19.45867 | 21802 ft | 289 kts | 105° |
| 2026-05-07 22:01 | 47.41598 | 19.48584 | 21677 ft | 274 kts | 130° |
| 2026-05-07 22:01 | 47.40441 | 19.50757 | 21548 ft | 268 kts | 138° |
| 2026-05-07 22:02 | 47.39189 | 19.52788 | 21421 ft | 267 kts | 140° |
| 2026-05-07 22:02 | 47.37919 | 19.54772 | 21283 ft | 266 kts | 140° |
| 2026-05-07 22:02 | 47.36643 | 19.56747 | 21159 ft | 265 kts | 140° |
| 2026-05-07 22:02 | 47.35375 | 19.58667 | 21027 ft | 263 kts | 146° |
| 2026-05-07 22:03 | 47.33834 | 19.59935 | 20894 ft | 250 kts | 170° |
| 2026-05-07 22:03 | 47.32144 | 19.60122 | 20766 ft | 243 kts | 192° |
| 2026-05-07 22:03 | 47.30574 | 19.59288 | 20643 ft | 241 kts | 213° |
| 2026-05-07 22:03 | 47.29369 | 19.57602 | 20514 ft | 242 kts | 234° |
| 2026-05-07 22:04 | 47.28717 | 19.55300 | 20392 ft | 249 kts | 256° |
| 2026-05-07 22:04 | 47.28778 | 19.52730 | 20265 ft | 259 kts | 280° |
| 2026-05-07 22:04 | 47.29627 | 19.50330 | 20138 ft | 272 kts | 304° |
| 2026-05-07 22:04 | 47.30897 | 19.48241 | 20021 ft | 275 kts | 306° |
| 2026-05-07 22:05 | 47.32184 | 19.46216 | 19893 ft | 275 kts | 307° |
| 2026-05-07 22:05 | 47.33498 | 19.44174 | 19779 ft | 275 kts | 307° |
| 2026-05-07 22:05 | 47.34819 | 19.42135 | 19666 ft | 275 kts | 310° |
| 2026-05-07 22:05 | 47.36452 | 19.40620 | 19521 ft | 286 kts | 339° |
| 2026-05-07 22:06 | 47.38449 | 19.40408 | 19404 ft | 294 kts | 11° |
| 2026-05-07 22:06 | 47.40284 | 19.41673 | 19285 ft | 294 kts | 44° |
| 2026-05-07 22:06 | 47.41456 | 19.44071 | 19163 ft | 286 kts | 76° |
| 2026-05-07 22:06 | 47.41710 | 19.46891 | 19043 ft | 273 kts | 105° |
| 2026-05-07 22:07 | 47.41105 | 19.49443 | 18930 ft | 259 kts | 131° |
| 2026-05-07 22:07 | 47.39995 | 19.51439 | 18813 ft | 255 kts | 139° |
| 2026-05-07 22:07 | 47.38794 | 19.53363 | 18692 ft | 254 kts | 140° |
| 2026-05-07 22:07 | 47.37580 | 19.55259 | 18572 ft | 254 kts | 140° |
| 2026-05-07 22:08 | 47.36371 | 19.57148 | 18449 ft | 250 kts | 139° |
| 2026-05-07 22:08 | 47.35171 | 19.58930 | 18321 ft | 240 kts | 151° |
| 2026-05-07 22:08 | 47.33697 | 19.59871 | 18186 ft | 227 kts | 176° |
| 2026-05-07 22:08 | 47.32157 | 19.59778 | 18055 ft | 223 kts | 198° |
| 2026-05-07 22:09 | 47.30770 | 19.58716 | 17922 ft | 225 kts | 221° |
| 2026-05-07 22:09 | 47.29887 | 19.56917 | 17773 ft | 216 kts | 248° |
| 2026-05-07 22:09 | 47.29899 | 19.54736 | 17518 ft | 225 kts | 294° |
| 2026-05-07 22:09 | 47.31160 | 19.53363 | 16931 ft | 254 kts | 355° |
| 2026-05-07 22:10 | 47.32829 | 19.54399 | 15613 ft | 291 kts | 57° |
| 2026-05-07 22:10 | 47.33247 | 19.57409 | 13350 ft | 332 kts | 110° |
| 2026-05-07 22:10 | 47.31742 | 19.60116 | 9300 ft | 372 kts | 162° |
| 2026-05-07 22:10 | 47.29364 | 19.58944 | 2755 ft | 408 kts | 243° |
| 2026-05-07 22:11 | 47.29071 | 19.56505 | 466 ft | 39 kts | 227° |